sensor_id;sensor_type;location;lat;lon;timestamp;P1;durP1;ratioP1;P2;durP2;ratioP2
17145;SDS011;8688;54.444;18.444;2023-11-21T00:03:58;7.90;;;3.93;;
17145;SDS011;8688;54.444;18.444;2023-11-21T00:06:26;9.07;;;4.30;;
17145;SDS011;8688;54.444;18.444;2023-11-21T00:08:57;9.97;;;4.33;;
17145;SDS011;8688;54.444;18.444;2023-11-21T00:11:25;8.23;;;4.57;;
17145;SDS011;8688;54.444;18.444;2023-11-21T00:13:54;9.20;;;4.27;;
17145;SDS011;8688;54.444;18.444;2023-11-21T00:16:23;9.77;;;4.80;;
17145;SDS011;8688;54.444;18.444;2023-11-21T00:18:52;9.23;;;4.60;;
17145;SDS011;8688;54.444;18.444;2023-11-21T00:21:20;9.07;;;4.53;;
17145;SDS011;8688;54.444;18.444;2023-11-21T00:23:48;9.23;;;4.63;;
17145;SDS011;8688;54.444;18.444;2023-11-21T00:26:17;7.33;;;4.20;;
17145;SDS011;8688;54.444;18.444;2023-11-21T00:28:45;11.67;;;4.50;;
17145;SDS011;8688;54.444;18.444;2023-11-21T00:31:13;9.17;;;4.67;;
17145;SDS011;8688;54.444;18.444;2023-11-21T00:33:40;8.53;;;4.40;;
17145;SDS011;8688;54.444;18.444;2023-11-21T00:36:08;11.83;;;4.93;;
17145;SDS011;8688;54.444;18.444;2023-11-21T00:38:37;9.60;;;4.37;;
17145;SDS011;8688;54.444;18.444;2023-11-21T00:41:06;9.60;;;4.33;;
17145;SDS011;8688;54.444;18.444;2023-11-21T00:43:35;10.17;;;4.90;;
17145;SDS011;8688;54.444;18.444;2023-11-21T00:46:04;10.00;;;4.43;;
17145;SDS011;8688;54.444;18.444;2023-11-21T00:48:32;8.60;;;4.50;;
17145;SDS011;8688;54.444;18.444;2023-11-21T00:51:00;9.40;;;4.70;;
17145;SDS011;8688;54.444;18.444;2023-11-21T00:53:29;8.93;;;4.53;;
17145;SDS011;8688;54.444;18.444;2023-11-21T00:55:57;8.27;;;4.87;;
17145;SDS011;8688;54.444;18.444;2023-11-21T00:58:25;8.87;;;4.33;;
17145;SDS011;8688;54.444;18.444;2023-11-21T01:00:54;9.97;;;4.47;;
17145;SDS011;8688;54.444;18.444;2023-11-21T01:03:23;7.23;;;4.03;;
17145;SDS011;8688;54.444;18.444;2023-11-21T01:05:51;11.70;;;4.60;;
17145;SDS011;8688;54.444;18.444;2023-11-21T01:08:19;9.87;;;4.13;;
17145;SDS011;8688;54.444;18.444;2023-11-21T01:10:48;7.77;;;4.50;;
17145;SDS011;8688;54.444;18.444;2023-11-21T01:13:16;9.33;;;4.40;;
17145;SDS011;8688;54.444;18.444;2023-11-21T01:15:44;8.93;;;4.10;;
17145;SDS011;8688;54.444;18.444;2023-11-21T01:18:13;9.57;;;4.73;;
17145;SDS011;8688;54.444;18.444;2023-11-21T01:20:41;9.67;;;4.40;;
17145;SDS011;8688;54.444;18.444;2023-11-21T01:23:09;11.30;;;4.60;;
17145;SDS011;8688;54.444;18.444;2023-11-21T01:25:37;9.27;;;4.87;;
17145;SDS011;8688;54.444;18.444;2023-11-21T01:28:04;11.27;;;5.10;;
17145;SDS011;8688;54.444;18.444;2023-11-21T01:30:32;12.27;;;5.43;;
17145;SDS011;8688;54.444;18.444;2023-11-21T01:33:02;10.40;;;5.47;;
17145;SDS011;8688;54.444;18.444;2023-11-21T01:35:31;9.23;;;4.97;;
17145;SDS011;8688;54.444;18.444;2023-11-21T01:37:59;11.17;;;4.90;;
17145;SDS011;8688;54.444;18.444;2023-11-21T01:40:29;9.40;;;4.10;;
17145;SDS011;8688;54.444;18.444;2023-11-21T01:42:57;11.13;;;4.60;;
17145;SDS011;8688;54.444;18.444;2023-11-21T01:45:26;8.07;;;3.97;;
17145;SDS011;8688;54.444;18.444;2023-11-21T01:47:56;8.03;;;3.53;;
17145;SDS011;8688;54.444;18.444;2023-11-21T01:50:25;6.20;;;3.47;;
17145;SDS011;8688;54.444;18.444;2023-11-21T01:52:56;6.57;;;3.60;;
17145;SDS011;8688;54.444;18.444;2023-11-21T01:55:24;7.00;;;3.53;;
17145;SDS011;8688;54.444;18.444;2023-11-21T01:57:52;6.60;;;3.57;;
17145;SDS011;8688;54.444;18.444;2023-11-21T02:00:21;4.73;;;3.00;;
17145;SDS011;8688;54.444;18.444;2023-11-21T02:02:49;6.53;;;3.30;;
17145;SDS011;8688;54.444;18.444;2023-11-21T02:05:16;5.70;;;3.40;;
17145;SDS011;8688;54.444;18.444;2023-11-21T02:07:50;6.17;;;3.13;;
17145;SDS011;8688;54.444;18.444;2023-11-21T02:10:20;7.47;;;3.27;;
17145;SDS011;8688;54.444;18.444;2023-11-21T02:12:48;4.63;;;2.83;;
17145;SDS011;8688;54.444;18.444;2023-11-21T02:15:17;7.80;;;3.50;;
17145;SDS011;8688;54.444;18.444;2023-11-21T02:17:47;5.33;;;3.20;;
17145;SDS011;8688;54.444;18.444;2023-11-21T02:20:16;4.37;;;2.37;;
17145;SDS011;8688;54.444;18.444;2023-11-21T02:22:49;5.90;;;3.30;;
17145;SDS011;8688;54.444;18.444;2023-11-21T02:25:23;7.33;;;3.43;;
17145;SDS011;8688;54.444;18.444;2023-11-21T02:27:52;5.73;;;3.20;;
17145;SDS011;8688;54.444;18.444;2023-11-21T02:30:20;3.80;;;2.77;;
17145;SDS011;8688;54.444;18.444;2023-11-21T02:32:50;5.43;;;3.00;;
17145;SDS011;8688;54.444;18.444;2023-11-21T02:35:19;5.20;;;3.10;;
17145;SDS011;8688;54.444;18.444;2023-11-21T02:37:49;4.80;;;3.00;;
17145;SDS011;8688;54.444;18.444;2023-11-21T02:40:19;5.43;;;2.90;;
17145;SDS011;8688;54.444;18.444;2023-11-21T02:42:48;6.17;;;3.30;;
17145;SDS011;8688;54.444;18.444;2023-11-21T02:45:18;5.23;;;3.30;;
17145;SDS011;8688;54.444;18.444;2023-11-21T02:47:47;6.37;;;3.10;;
17145;SDS011;8688;54.444;18.444;2023-11-21T02:50:16;5.83;;;3.30;;
17145;SDS011;8688;54.444;18.444;2023-11-21T02:52:45;5.57;;;2.97;;
17145;SDS011;8688;54.444;18.444;2023-11-21T02:55:14;5.33;;;3.10;;
17145;SDS011;8688;54.444;18.444;2023-11-21T02:57:42;5.13;;;2.97;;
17145;SDS011;8688;54.444;18.444;2023-11-21T03:00:10;6.40;;;3.77;;
17145;SDS011;8688;54.444;18.444;2023-11-21T03:02:40;8.03;;;3.77;;
17145;SDS011;8688;54.444;18.444;2023-11-21T03:05:08;6.10;;;3.40;;
17145;SDS011;8688;54.444;18.444;2023-11-21T03:07:36;6.07;;;3.33;;
17145;SDS011;8688;54.444;18.444;2023-11-21T03:10:05;6.23;;;3.40;;
17145;SDS011;8688;54.444;18.444;2023-11-21T03:12:37;5.80;;;3.33;;
17145;SDS011;8688;54.444;18.444;2023-11-21T03:15:06;5.50;;;3.07;;
17145;SDS011;8688;54.444;18.444;2023-11-21T03:17:35;6.30;;;3.30;;
17145;SDS011;8688;54.444;18.444;2023-11-21T03:20:03;7.97;;;3.67;;
17145;SDS011;8688;54.444;18.444;2023-11-21T03:22:36;5.73;;;3.37;;
17145;SDS011;8688;54.444;18.444;2023-11-21T03:25:04;8.50;;;3.00;;
17145;SDS011;8688;54.444;18.444;2023-11-21T03:27:35;6.47;;;3.60;;
17145;SDS011;8688;54.444;18.444;2023-11-21T03:30:07;6.03;;;3.63;;
17145;SDS011;8688;54.444;18.444;2023-11-21T03:32:37;7.17;;;3.87;;
17145;SDS011;8688;54.444;18.444;2023-11-21T03:35:05;10.07;;;3.47;;
17145;SDS011;8688;54.444;18.444;2023-11-21T03:37:33;5.00;;;2.43;;
17145;SDS011;8688;54.444;18.444;2023-11-21T03:40:03;6.33;;;3.63;;
17145;SDS011;8688;54.444;18.444;2023-11-21T03:42:34;6.67;;;3.13;;
17145;SDS011;8688;54.444;18.444;2023-11-21T03:45:04;8.90;;;3.73;;
17145;SDS011;8688;54.444;18.444;2023-11-21T03:47:32;6.67;;;3.60;;
17145;SDS011;8688;54.444;18.444;2023-11-21T03:50:01;6.67;;;3.23;;
17145;SDS011;8688;54.444;18.444;2023-11-21T03:52:29;5.77;;;3.40;;
17145;SDS011;8688;54.444;18.444;2023-11-21T03:54:57;6.80;;;3.30;;
17145;SDS011;8688;54.444;18.444;2023-11-21T03:57:25;6.23;;;3.53;;
17145;SDS011;8688;54.444;18.444;2023-11-21T03:59:53;5.97;;;2.77;;
17145;SDS011;8688;54.444;18.444;2023-11-21T04:02:22;6.83;;;3.40;;
17145;SDS011;8688;54.444;18.444;2023-11-21T04:04:51;7.87;;;3.57;;
17145;SDS011;8688;54.444;18.444;2023-11-21T04:07:19;7.97;;;3.60;;
17145;SDS011;8688;54.444;18.444;2023-11-21T04:09:47;5.13;;;2.53;;
17145;SDS011;8688;54.444;18.444;2023-11-21T04:12:15;5.40;;;2.70;;
17145;SDS011;8688;54.444;18.444;2023-11-21T04:14:43;6.90;;;3.70;;
17145;SDS011;8688;54.444;18.444;2023-11-21T04:17:17;7.20;;;3.30;;
17145;SDS011;8688;54.444;18.444;2023-11-21T04:19:48;5.03;;;3.03;;
17145;SDS011;8688;54.444;18.444;2023-11-21T04:22:16;5.50;;;3.17;;
17145;SDS011;8688;54.444;18.444;2023-11-21T04:24:44;5.53;;;3.30;;
17145;SDS011;8688;54.444;18.444;2023-11-21T04:27:12;6.07;;;3.50;;
17145;SDS011;8688;54.444;18.444;2023-11-21T04:29:39;6.93;;;3.50;;
17145;SDS011;8688;54.444;18.444;2023-11-21T04:32:08;5.50;;;3.13;;
17145;SDS011;8688;54.444;18.444;2023-11-21T04:34:36;7.43;;;3.80;;
17145;SDS011;8688;54.444;18.444;2023-11-21T04:37:05;5.67;;;3.23;;
17145;SDS011;8688;54.444;18.444;2023-11-21T04:39:33;6.33;;;3.60;;
17145;SDS011;8688;54.444;18.444;2023-11-21T04:42:01;5.47;;;3.03;;
17145;SDS011;8688;54.444;18.444;2023-11-21T04:44:28;5.33;;;3.23;;
17145;SDS011;8688;54.444;18.444;2023-11-21T04:46:56;9.40;;;3.13;;
17145;SDS011;8688;54.444;18.444;2023-11-21T04:49:24;7.93;;;2.90;;
17145;SDS011;8688;54.444;18.444;2023-11-21T04:51:52;6.43;;;3.67;;
17145;SDS011;8688;54.444;18.444;2023-11-21T04:54:21;6.57;;;3.50;;
17145;SDS011;8688;54.444;18.444;2023-11-21T04:56:50;4.37;;;2.80;;
17145;SDS011;8688;54.444;18.444;2023-11-21T04:59:17;8.43;;;3.73;;
17145;SDS011;8688;54.444;18.444;2023-11-21T05:01:45;8.27;;;4.10;;
17145;SDS011;8688;54.444;18.444;2023-11-21T05:04:17;7.03;;;3.83;;
17145;SDS011;8688;54.444;18.444;2023-11-21T05:06:47;6.40;;;3.60;;
17145;SDS011;8688;54.444;18.444;2023-11-21T05:09:15;8.33;;;3.30;;
17145;SDS011;8688;54.444;18.444;2023-11-21T05:11:45;6.60;;;3.33;;
17145;SDS011;8688;54.444;18.444;2023-11-21T05:14:13;6.63;;;3.30;;
17145;SDS011;8688;54.444;18.444;2023-11-21T05:16:48;7.97;;;3.40;;
17145;SDS011;8688;54.444;18.444;2023-11-21T05:19:16;7.97;;;3.60;;
17145;SDS011;8688;54.444;18.444;2023-11-21T05:21:44;7.17;;;3.37;;
17145;SDS011;8688;54.444;18.444;2023-11-21T05:24:12;6.27;;;3.57;;
17145;SDS011;8688;54.444;18.444;2023-11-21T05:26:40;6.17;;;3.07;;
17145;SDS011;8688;54.444;18.444;2023-11-21T05:29:11;7.63;;;3.67;;
17145;SDS011;8688;54.444;18.444;2023-11-21T05:31:38;7.87;;;3.47;;
17145;SDS011;8688;54.444;18.444;2023-11-21T05:34:06;6.20;;;3.43;;
17145;SDS011;8688;54.444;18.444;2023-11-21T05:36:34;7.20;;;4.47;;
17145;SDS011;8688;54.444;18.444;2023-11-21T05:39:02;7.03;;;3.77;;
17145;SDS011;8688;54.444;18.444;2023-11-21T05:41:31;6.07;;;3.57;;
17145;SDS011;8688;54.444;18.444;2023-11-21T05:43:59;6.80;;;3.70;;
17145;SDS011;8688;54.444;18.444;2023-11-21T05:46:29;6.67;;;3.23;;
17145;SDS011;8688;54.444;18.444;2023-11-21T05:48:57;8.27;;;3.53;;
17145;SDS011;8688;54.444;18.444;2023-11-21T05:51:25;8.07;;;3.07;;
17145;SDS011;8688;54.444;18.444;2023-11-21T05:53:53;8.40;;;3.57;;
17145;SDS011;8688;54.444;18.444;2023-11-21T05:56:21;8.13;;;4.23;;
17145;SDS011;8688;54.444;18.444;2023-11-21T05:58:50;7.27;;;3.00;;
17145;SDS011;8688;54.444;18.444;2023-11-21T06:01:17;6.17;;;3.03;;
17145;SDS011;8688;54.444;18.444;2023-11-21T06:03:49;5.87;;;3.10;;
17145;SDS011;8688;54.444;18.444;2023-11-21T06:06:17;5.50;;;3.43;;
17145;SDS011;8688;54.444;18.444;2023-11-21T06:08:44;5.10;;;3.03;;
17145;SDS011;8688;54.444;18.444;2023-11-21T06:11:12;6.23;;;3.17;;
17145;SDS011;8688;54.444;18.444;2023-11-21T06:13:41;4.93;;;2.90;;
17145;SDS011;8688;54.444;18.444;2023-11-21T06:16:09;5.57;;;3.00;;
17145;SDS011;8688;54.444;18.444;2023-11-21T06:18:40;4.70;;;2.87;;
17145;SDS011;8688;54.444;18.444;2023-11-21T06:21:10;4.53;;;2.93;;
17145;SDS011;8688;54.444;18.444;2023-11-21T06:23:38;4.53;;;2.70;;
17145;SDS011;8688;54.444;18.444;2023-11-21T06:26:06;5.50;;;2.60;;
17145;SDS011;8688;54.444;18.444;2023-11-21T06:28:34;4.10;;;2.40;;
17145;SDS011;8688;54.444;18.444;2023-11-21T06:31:02;5.57;;;2.63;;
17145;SDS011;8688;54.444;18.444;2023-11-21T06:33:31;4.00;;;2.30;;
17145;SDS011;8688;54.444;18.444;2023-11-21T06:36:03;2.57;;;1.67;;
17145;SDS011;8688;54.444;18.444;2023-11-21T06:38:35;5.17;;;2.40;;
17145;SDS011;8688;54.444;18.444;2023-11-21T06:41:02;3.20;;;1.83;;
17145;SDS011;8688;54.444;18.444;2023-11-21T06:43:31;5.90;;;2.30;;
17145;SDS011;8688;54.444;18.444;2023-11-21T06:45:59;5.70;;;2.90;;
17145;SDS011;8688;54.444;18.444;2023-11-21T06:48:27;3.53;;;2.40;;
17145;SDS011;8688;54.444;18.444;2023-11-21T06:50:56;5.03;;;2.77;;
17145;SDS011;8688;54.444;18.444;2023-11-21T06:53:24;5.67;;;2.90;;
17145;SDS011;8688;54.444;18.444;2023-11-21T06:55:54;3.40;;;2.20;;
17145;SDS011;8688;54.444;18.444;2023-11-21T06:58:22;4.43;;;2.40;;
17145;SDS011;8688;54.444;18.444;2023-11-21T07:00:49;4.60;;;2.43;;
17145;SDS011;8688;54.444;18.444;2023-11-21T07:03:19;4.60;;;2.63;;
17145;SDS011;8688;54.444;18.444;2023-11-21T07:05:49;4.37;;;2.47;;
17145;SDS011;8688;54.444;18.444;2023-11-21T07:08:17;5.20;;;2.47;;
17145;SDS011;8688;54.444;18.444;2023-11-21T07:10:46;6.43;;;2.57;;
17145;SDS011;8688;54.444;18.444;2023-11-21T07:13:16;4.57;;;2.30;;
17145;SDS011;8688;54.444;18.444;2023-11-21T07:15:44;4.50;;;2.17;;
17145;SDS011;8688;54.444;18.444;2023-11-21T07:18:12;10.67;;;2.30;;
17145;SDS011;8688;54.444;18.444;2023-11-21T07:20:40;4.07;;;2.00;;
17145;SDS011;8688;54.444;18.444;2023-11-21T07:23:08;3.77;;;2.27;;
17145;SDS011;8688;54.444;18.444;2023-11-21T07:25:36;3.63;;;1.90;;
17145;SDS011;8688;54.444;18.444;2023-11-21T07:28:03;3.77;;;2.03;;
17145;SDS011;8688;54.444;18.444;2023-11-21T07:30:34;4.33;;;2.40;;
17145;SDS011;8688;54.444;18.444;2023-11-21T07:33:03;3.73;;;2.30;;
17145;SDS011;8688;54.444;18.444;2023-11-21T07:35:31;4.10;;;2.40;;
17145;SDS011;8688;54.444;18.444;2023-11-21T07:37:59;3.73;;;2.07;;
17145;SDS011;8688;54.444;18.444;2023-11-21T07:40:27;3.93;;;2.00;;
17145;SDS011;8688;54.444;18.444;2023-11-21T07:42:57;3.63;;;2.00;;
17145;SDS011;8688;54.444;18.444;2023-11-21T07:45:25;3.50;;;2.10;;
17145;SDS011;8688;54.444;18.444;2023-11-21T07:47:55;4.50;;;2.30;;
17145;SDS011;8688;54.444;18.444;2023-11-21T07:50:24;3.40;;;2.20;;
17145;SDS011;8688;54.444;18.444;2023-11-21T07:52:52;5.53;;;2.30;;
17145;SDS011;8688;54.444;18.444;2023-11-21T07:55:21;5.50;;;2.47;;
17145;SDS011;8688;54.444;18.444;2023-11-21T07:57:50;3.57;;;2.20;;
17145;SDS011;8688;54.444;18.444;2023-11-21T08:00:19;7.53;;;3.00;;
17145;SDS011;8688;54.444;18.444;2023-11-21T08:02:47;6.03;;;2.60;;
17145;SDS011;8688;54.444;18.444;2023-11-21T08:05:24;3.90;;;2.10;;
17145;SDS011;8688;54.444;18.444;2023-11-21T08:07:53;4.83;;;2.47;;
17145;SDS011;8688;54.444;18.444;2023-11-21T08:10:21;7.10;;;1.83;;
17145;SDS011;8688;54.444;18.444;2023-11-21T08:12:49;6.17;;;2.33;;
17145;SDS011;8688;54.444;18.444;2023-11-21T08:15:18;6.57;;;1.87;;
17145;SDS011;8688;54.444;18.444;2023-11-21T08:17:47;3.60;;;1.43;;
17145;SDS011;8688;54.444;18.444;2023-11-21T08:20:15;3.73;;;1.83;;
17145;SDS011;8688;54.444;18.444;2023-11-21T08:22:44;5.30;;;2.40;;
17145;SDS011;8688;54.444;18.444;2023-11-21T08:25:14;4.23;;;2.37;;
17145;SDS011;8688;54.444;18.444;2023-11-21T08:27:42;4.97;;;2.30;;
17145;SDS011;8688;54.444;18.444;2023-11-21T08:30:11;4.23;;;2.50;;
17145;SDS011;8688;54.444;18.444;2023-11-21T08:32:52;5.83;;;2.73;;
17145;SDS011;8688;54.444;18.444;2023-11-21T08:35:24;5.10;;;1.90;;
17145;SDS011;8688;54.444;18.444;2023-11-21T08:37:54;3.60;;;1.80;;
17145;SDS011;8688;54.444;18.444;2023-11-21T08:40:22;4.30;;;2.07;;
17145;SDS011;8688;54.444;18.444;2023-11-21T08:42:50;20.03;;;3.57;;
17145;SDS011;8688;54.444;18.444;2023-11-21T08:45:20;18.40;;;4.27;;
17145;SDS011;8688;54.444;18.444;2023-11-21T08:47:48;11.47;;;2.90;;
17145;SDS011;8688;54.444;18.444;2023-11-21T08:50:17;17.83;;;4.20;;
17145;SDS011;8688;54.444;18.444;2023-11-21T08:52:45;12.63;;;4.37;;
17145;SDS011;8688;54.444;18.444;2023-11-21T08:55:14;6.57;;;2.67;;
17145;SDS011;8688;54.444;18.444;2023-11-21T08:57:43;6.50;;;2.33;;
17145;SDS011;8688;54.444;18.444;2023-11-21T09:00:12;6.23;;;2.73;;
17145;SDS011;8688;54.444;18.444;2023-11-21T09:02:42;4.90;;;1.87;;
17145;SDS011;8688;54.444;18.444;2023-11-21T09:05:14;3.27;;;1.30;;
17145;SDS011;8688;54.444;18.444;2023-11-21T09:07:43;1.53;;;1.10;;
17145;SDS011;8688;54.444;18.444;2023-11-21T09:10:12;3.37;;;1.63;;
17145;SDS011;8688;54.444;18.444;2023-11-21T09:12:42;2.97;;;1.70;;
17145;SDS011;8688;54.444;18.444;2023-11-21T09:15:09;4.13;;;1.50;;
17145;SDS011;8688;54.444;18.444;2023-11-21T09:17:38;3.27;;;1.13;;
17145;SDS011;8688;54.444;18.444;2023-11-21T09:20:08;3.27;;;1.63;;
17145;SDS011;8688;54.444;18.444;2023-11-21T09:22:36;2.13;;;1.53;;
17145;SDS011;8688;54.444;18.444;2023-11-21T09:25:05;2.53;;;1.40;;
17145;SDS011;8688;54.444;18.444;2023-11-21T09:27:35;1.87;;;1.10;;
17145;SDS011;8688;54.444;18.444;2023-11-21T09:30:04;1.60;;;1.40;;
17145;SDS011;8688;54.444;18.444;2023-11-21T09:32:35;2.97;;;1.30;;
17145;SDS011;8688;54.444;18.444;2023-11-21T09:35:03;2.40;;;1.37;;
17145;SDS011;8688;54.444;18.444;2023-11-21T09:37:33;4.40;;;1.47;;
17145;SDS011;8688;54.444;18.444;2023-11-21T09:40:02;2.97;;;1.57;;
17145;SDS011;8688;54.444;18.444;2023-11-21T09:42:39;2.70;;;1.60;;
17145;SDS011;8688;54.444;18.444;2023-11-21T09:45:13;4.07;;;1.60;;
17145;SDS011;8688;54.444;18.444;2023-11-21T09:47:46;3.50;;;1.47;;
17145;SDS011;8688;54.444;18.444;2023-11-21T09:50:16;3.47;;;1.70;;
17145;SDS011;8688;54.444;18.444;2023-11-21T09:52:49;3.13;;;1.57;;
17145;SDS011;8688;54.444;18.444;2023-11-21T09:55:22;6.90;;;2.60;;
17145;SDS011;8688;54.444;18.444;2023-11-21T09:57:57;6.13;;;2.30;;
17145;SDS011;8688;54.444;18.444;2023-11-21T10:00:28;3.50;;;1.70;;
17145;SDS011;8688;54.444;18.444;2023-11-21T10:02:58;3.13;;;2.10;;
17145;SDS011;8688;54.444;18.444;2023-11-21T10:05:29;3.53;;;2.00;;
17145;SDS011;8688;54.444;18.444;2023-11-21T10:08:00;2.90;;;1.80;;
17145;SDS011;8688;54.444;18.444;2023-11-21T10:10:30;3.83;;;1.77;;
17145;SDS011;8688;54.444;18.444;2023-11-21T10:13:02;2.97;;;1.93;;
17145;SDS011;8688;54.444;18.444;2023-11-21T10:15:33;3.43;;;2.20;;
17145;SDS011;8688;54.444;18.444;2023-11-21T10:18:03;4.73;;;2.30;;
17145;SDS011;8688;54.444;18.444;2023-11-21T10:20:32;5.00;;;2.23;;
17145;SDS011;8688;54.444;18.444;2023-11-21T10:23:00;5.07;;;2.00;;
17145;SDS011;8688;54.444;18.444;2023-11-21T10:25:29;2.50;;;2.00;;
17145;SDS011;8688;54.444;18.444;2023-11-21T10:30:33;4.37;;;2.17;;
17145;SDS011;8688;54.444;18.444;2023-11-21T10:33:03;3.67;;;2.10;;
17145;SDS011;8688;54.444;18.444;2023-11-21T10:35:45;4.23;;;2.10;;
17145;SDS011;8688;54.444;18.444;2023-11-21T10:38:16;3.40;;;1.90;;
17145;SDS011;8688;54.444;18.444;2023-11-21T10:40:46;5.50;;;2.30;;
17145;SDS011;8688;54.444;18.444;2023-11-21T10:43:16;4.30;;;2.30;;
17145;SDS011;8688;54.444;18.444;2023-11-21T10:45:45;3.97;;;2.17;;
17145;SDS011;8688;54.444;18.444;2023-11-21T10:48:20;4.23;;;2.30;;
17145;SDS011;8688;54.444;18.444;2023-11-21T10:50:51;3.20;;;1.90;;
17145;SDS011;8688;54.444;18.444;2023-11-21T10:53:21;4.03;;;2.20;;
17145;SDS011;8688;54.444;18.444;2023-11-21T10:55:49;3.63;;;2.03;;
17145;SDS011;8688;54.444;18.444;2023-11-21T10:58:19;3.93;;;1.90;;
17145;SDS011;8688;54.444;18.444;2023-11-21T11:00:48;3.23;;;1.57;;
17145;SDS011;8688;54.444;18.444;2023-11-21T11:03:18;2.77;;;1.70;;
17145;SDS011;8688;54.444;18.444;2023-11-21T11:05:48;4.47;;;2.10;;
17145;SDS011;8688;54.444;18.444;2023-11-21T11:08:20;3.20;;;1.80;;
17145;SDS011;8688;54.444;18.444;2023-11-21T11:10:51;2.97;;;1.77;;
17145;SDS011;8688;54.444;18.444;2023-11-21T11:13:21;2.83;;;1.83;;
17145;SDS011;8688;54.444;18.444;2023-11-21T11:15:49;4.40;;;2.03;;
17145;SDS011;8688;54.444;18.444;2023-11-21T11:18:19;4.17;;;1.67;;
17145;SDS011;8688;54.444;18.444;2023-11-21T11:20:48;3.27;;;1.80;;
17145;SDS011;8688;54.444;18.444;2023-11-21T11:23:26;2.97;;;1.63;;
17145;SDS011;8688;54.444;18.444;2023-11-21T11:26:07;3.50;;;1.97;;
17145;SDS011;8688;54.444;18.444;2023-11-21T11:28:52;3.50;;;1.97;;
17145;SDS011;8688;54.444;18.444;2023-11-21T11:31:36;3.80;;;2.03;;
17145;SDS011;8688;54.444;18.444;2023-11-21T11:34:17;2.50;;;1.60;;
17145;SDS011;8688;54.444;18.444;2023-11-21T11:36:54;3.47;;;1.97;;
17145;SDS011;8688;54.444;18.444;2023-11-21T11:39:28;5.53;;;1.77;;
17145;SDS011;8688;54.444;18.444;2023-11-21T11:41:57;4.00;;;2.17;;
17145;SDS011;8688;54.444;18.444;2023-11-21T11:47:31;5.07;;;2.17;;
17145;SDS011;8688;54.444;18.444;2023-11-21T11:50:03;3.70;;;2.10;;
17145;SDS011;8688;54.444;18.444;2023-11-21T11:52:37;3.80;;;2.00;;
17145;SDS011;8688;54.444;18.444;2023-11-21T11:55:07;2.97;;;1.87;;
17145;SDS011;8688;54.444;18.444;2023-11-21T11:57:37;4.00;;;1.77;;
17145;SDS011;8688;54.444;18.444;2023-11-21T12:00:13;5.40;;;1.77;;
17145;SDS011;8688;54.444;18.444;2023-11-21T12:02:48;3.33;;;1.80;;
17145;SDS011;8688;54.444;18.444;2023-11-21T12:05:17;4.57;;;2.07;;
17145;SDS011;8688;54.444;18.444;2023-11-21T12:07:47;4.83;;;2.00;;
17145;SDS011;8688;54.444;18.444;2023-11-21T12:10:18;3.63;;;1.90;;
17145;SDS011;8688;54.444;18.444;2023-11-21T12:12:51;3.87;;;1.90;;
17145;SDS011;8688;54.444;18.444;2023-11-21T12:15:22;3.27;;;1.70;;
17145;SDS011;8688;54.444;18.444;2023-11-21T12:17:51;5.33;;;2.40;;
17145;SDS011;8688;54.444;18.444;2023-11-21T12:20:20;4.37;;;1.83;;
17145;SDS011;8688;54.444;18.444;2023-11-21T12:22:49;3.80;;;1.80;;
17145;SDS011;8688;54.444;18.444;2023-11-21T12:25:18;5.63;;;2.23;;
17145;SDS011;8688;54.444;18.444;2023-11-21T12:27:48;9.60;;;2.63;;
17145;SDS011;8688;54.444;18.444;2023-11-21T12:30:17;4.03;;;1.80;;
17145;SDS011;8688;54.444;18.444;2023-11-21T12:32:49;2.43;;;1.60;;
17145;SDS011;8688;54.444;18.444;2023-11-21T12:35:18;2.80;;;1.60;;
17145;SDS011;8688;54.444;18.444;2023-11-21T12:37:47;5.13;;;1.73;;
17145;SDS011;8688;54.444;18.444;2023-11-21T12:40:16;3.40;;;2.00;;
17145;SDS011;8688;54.444;18.444;2023-11-21T12:42:45;7.57;;;1.80;;
17145;SDS011;8688;54.444;18.444;2023-11-21T12:45:21;3.03;;;1.70;;
17145;SDS011;8688;54.444;18.444;2023-11-21T12:47:54;5.80;;;2.03;;
17145;SDS011;8688;54.444;18.444;2023-11-21T12:50:27;3.67;;;1.70;;
17145;SDS011;8688;54.444;18.444;2023-11-21T12:52:58;2.40;;;1.50;;
17145;SDS011;8688;54.444;18.444;2023-11-21T12:55:29;4.03;;;1.93;;
17145;SDS011;8688;54.444;18.444;2023-11-21T12:58:01;4.23;;;2.20;;
17145;SDS011;8688;54.444;18.444;2023-11-21T13:00:35;3.93;;;2.27;;
17145;SDS011;8688;54.444;18.444;2023-11-21T13:03:07;4.43;;;2.37;;
17145;SDS011;8688;54.444;18.444;2023-11-21T13:05:36;3.07;;;2.07;;
17145;SDS011;8688;54.444;18.444;2023-11-21T13:08:05;3.63;;;2.00;;
17145;SDS011;8688;54.444;18.444;2023-11-21T13:10:35;4.97;;;2.30;;
17145;SDS011;8688;54.444;18.444;2023-11-21T13:13:05;6.40;;;2.43;;
17145;SDS011;8688;54.444;18.444;2023-11-21T13:15:35;5.23;;;2.77;;
17145;SDS011;8688;54.444;18.444;2023-11-21T13:18:08;5.43;;;2.60;;
17145;SDS011;8688;54.444;18.444;2023-11-21T13:20:38;3.63;;;2.13;;
17145;SDS011;8688;54.444;18.444;2023-11-21T13:23:07;2.87;;;1.97;;
17145;SDS011;8688;54.444;18.444;2023-11-21T13:25:37;4.43;;;1.90;;
17145;SDS011;8688;54.444;18.444;2023-11-21T13:28:06;4.33;;;2.30;;
17145;SDS011;8688;54.444;18.444;2023-11-21T13:30:37;5.53;;;2.20;;
17145;SDS011;8688;54.444;18.444;2023-11-21T13:33:06;4.40;;;2.10;;
17145;SDS011;8688;54.444;18.444;2023-11-21T13:35:43;3.33;;;1.93;;
17145;SDS011;8688;54.444;18.444;2023-11-21T13:38:16;7.00;;;2.50;;
17145;SDS011;8688;54.444;18.444;2023-11-21T13:40:50;5.70;;;2.07;;
17145;SDS011;8688;54.444;18.444;2023-11-21T13:43:20;3.73;;;2.27;;
17145;SDS011;8688;54.444;18.444;2023-11-21T13:45:50;3.67;;;1.93;;
17145;SDS011;8688;54.444;18.444;2023-11-21T13:48:26;3.83;;;2.10;;
17145;SDS011;8688;54.444;18.444;2023-11-21T13:50:59;2.37;;;1.50;;
17145;SDS011;8688;54.444;18.444;2023-11-21T13:53:36;2.77;;;1.40;;
17145;SDS011;8688;54.444;18.444;2023-11-21T13:56:06;2.00;;;1.07;;
17145;SDS011;8688;54.444;18.444;2023-11-21T13:58:34;1.93;;;0.93;;
17145;SDS011;8688;54.444;18.444;2023-11-21T14:01:10;1.57;;;1.20;;
17145;SDS011;8688;54.444;18.444;2023-11-21T14:03:59;2.63;;;1.07;;
17145;SDS011;8688;54.444;18.444;2023-11-21T14:06:38;2.00;;;1.10;;
17145;SDS011;8688;54.444;18.444;2023-11-21T14:09:16;2.77;;;1.00;;
17145;SDS011;8688;54.444;18.444;2023-11-21T14:11:52;1.83;;;1.03;;
17145;SDS011;8688;54.444;18.444;2023-11-21T14:14:24;1.57;;;1.00;;
17145;SDS011;8688;54.444;18.444;2023-11-21T14:16:54;2.83;;;1.50;;
17145;SDS011;8688;54.444;18.444;2023-11-21T14:19:24;3.27;;;1.43;;
17145;SDS011;8688;54.444;18.444;2023-11-21T14:21:56;2.97;;;1.50;;
17145;SDS011;8688;54.444;18.444;2023-11-21T14:24:25;4.53;;;1.60;;
17145;SDS011;8688;54.444;18.444;2023-11-21T14:26:55;2.47;;;1.17;;
17145;SDS011;8688;54.444;18.444;2023-11-21T14:29:24;2.57;;;1.20;;
17145;SDS011;8688;54.444;18.444;2023-11-21T14:31:54;2.40;;;1.30;;
17145;SDS011;8688;54.444;18.444;2023-11-21T14:34:26;3.67;;;1.20;;
17145;SDS011;8688;54.444;18.444;2023-11-21T14:36:54;2.00;;;1.00;;
17145;SDS011;8688;54.444;18.444;2023-11-21T14:39:23;1.90;;;1.10;;
17145;SDS011;8688;54.444;18.444;2023-11-21T14:41:53;2.43;;;1.30;;
17145;SDS011;8688;54.444;18.444;2023-11-21T14:44:23;3.40;;;1.40;;
17145;SDS011;8688;54.444;18.444;2023-11-21T14:46:53;4.13;;;1.50;;
17145;SDS011;8688;54.444;18.444;2023-11-21T14:49:22;2.40;;;1.47;;
17145;SDS011;8688;54.444;18.444;2023-11-21T14:51:54;3.97;;;1.70;;
17145;SDS011;8688;54.444;18.444;2023-11-21T14:54:28;2.97;;;1.67;;
17145;SDS011;8688;54.444;18.444;2023-11-21T14:57:09;2.30;;;1.07;;
17145;SDS011;8688;54.444;18.444;2023-11-21T14:59:43;3.43;;;2.20;;
17145;SDS011;8688;54.444;18.444;2023-11-21T15:02:12;4.33;;;1.80;;
17145;SDS011;8688;54.444;18.444;2023-11-21T15:04:42;3.10;;;1.70;;
17145;SDS011;8688;54.444;18.444;2023-11-21T15:07:11;4.10;;;2.13;;
17145;SDS011;8688;54.444;18.444;2023-11-21T15:09:39;4.00;;;1.67;;
17145;SDS011;8688;54.444;18.444;2023-11-21T15:12:07;5.90;;;2.20;;